createdAt,value
2022-11-21T00:03:25.265Z,-3.09
2022-11-21T00:07:26.731Z,-3.06
2022-11-21T00:11:28.354Z,-3.07
2022-11-21T00:15:30.064Z,-3.05
2022-11-21T00:19:31.589Z,-2.85
2022-11-21T00:23:33.157Z,-2.83
2022-11-21T00:27:34.651Z,-3.03
2022-11-21T00:31:36.116Z,-2.80
2022-11-21T00:35:37.605Z,-2.71
2022-11-21T00:39:39.108Z,-2.95
2022-11-21T00:43:40.577Z,-2.77
2022-11-21T00:47:42.069Z,-2.90
2022-11-21T00:51:43.802Z,-2.88
2022-11-21T00:55:45.396Z,-3.12
2022-11-21T00:59:46.861Z,-2.93
2022-11-21T01:03:48.459Z,-2.95
2022-11-21T01:07:49.872Z,-3.04
2022-11-21T01:11:51.617Z,-2.95
2022-11-21T01:15:53.168Z,-2.72
2022-11-21T01:19:54.703Z,-2.69
2022-11-21T01:23:58.463Z,-2.61
2022-11-21T01:27:59.948Z,-2.62
2022-11-21T01:32:01.487Z,-2.60
2022-11-21T01:36:10.372Z,-2.76
2022-11-21T01:40:12.540Z,-2.59
2022-11-21T01:44:19.400Z,-2.59
2022-11-21T01:48:28.666Z,-2.72
2022-11-21T01:52:32.575Z,-2.66
2022-11-21T01:56:41.364Z,-2.63
2022-11-21T02:00:45.693Z,-2.56
2022-11-21T02:04:48.456Z,-2.53
2022-11-21T02:08:50.325Z,-2.72
2022-11-21T02:12:53.599Z,-2.60
2022-11-21T02:17:00.306Z,-2.61
2022-11-21T02:21:37.032Z,-2.58
2022-11-21T02:25:41.508Z,-2.75
2022-11-21T02:29:43.403Z,-2.75
2022-11-21T02:33:44.884Z,-2.81
2022-11-21T02:37:51.748Z,-2.74
2022-11-21T02:42:02.311Z,-2.85
2022-11-21T02:46:03.941Z,-2.54
2022-11-21T02:50:19.626Z,-2.48
2022-11-21T02:54:21.176Z,-2.27
2022-11-21T02:58:22.806Z,-2.30
2022-11-21T03:02:24.363Z,-2.28
2022-11-21T03:06:25.862Z,-2.26
2022-11-21T03:10:27.456Z,-2.20
2022-11-21T03:14:29.185Z,-2.42
2022-11-21T03:18:30.925Z,-2.61
2022-11-21T03:22:32.446Z,-2.59
2022-11-21T03:26:33.924Z,-2.46
2022-11-21T03:30:35.513Z,-2.48
2022-11-21T03:34:37.032Z,-2.55
2022-11-21T03:38:38.551Z,-2.58
2022-11-21T03:42:40.135Z,-2.50
2022-11-21T03:46:46.410Z,-2.56
2022-11-21T03:50:48.014Z,-2.46
2022-11-21T03:54:49.518Z,-2.41
2022-11-21T03:58:51.238Z,-2.81
2022-11-21T04:02:52.744Z,-2.84
2022-11-21T04:06:54.308Z,-2.95
2022-11-21T04:10:55.879Z,-2.86
2022-11-21T04:14:57.415Z,-2.67
2022-11-21T04:18:58.914Z,-2.43
2022-11-21T04:23:00.501Z,-2.39
2022-11-21T04:27:02.060Z,-2.26
2022-11-21T04:31:10.275Z,-2.47
2022-11-21T04:35:12.503Z,-2.62
2022-11-21T04:39:13.993Z,-2.57
2022-11-21T04:43:15.525Z,-2.50
2022-11-21T04:47:17.055Z,-2.42
2022-11-21T04:51:18.589Z,-2.36
2022-11-21T04:55:21.794Z,-2.41
2022-11-21T04:59:23.351Z,-2.41
2022-11-21T05:03:24.949Z,-2.33
2022-11-21T05:07:26.738Z,-2.44
2022-11-21T05:11:46.921Z,-2.39
2022-11-21T05:15:51.600Z,-2.54
2022-11-21T05:19:53.197Z,-2.74
2022-11-21T05:23:54.724Z,-2.65
2022-11-21T05:27:56.869Z,-2.60
2022-11-21T05:31:58.402Z,-2.56
2022-11-21T05:36:00.063Z,-2.81
2022-11-21T05:40:01.680Z,-2.62
2022-11-21T05:44:03.191Z,-2.81
2022-11-21T05:48:08.036Z,-2.68
2022-11-21T05:52:09.828Z,-2.53
2022-11-21T05:56:18.231Z,-2.79
2022-11-21T06:00:19.898Z,-2.52
2022-11-21T06:04:21.435Z,-2.44
2022-11-21T06:08:22.962Z,-2.44
2022-11-21T06:12:25.825Z,-2.49
2022-11-21T06:16:27.409Z,-2.32
2022-11-21T06:20:28.973Z,-2.43
2022-11-21T06:24:30.588Z,-2.18
2022-11-21T06:28:34.502Z,-2.25
2022-11-21T06:32:39.081Z,-2.24
2022-11-21T06:36:40.662Z,-2.12
2022-11-21T06:40:42.144Z,-2.01
2022-11-21T06:44:43.613Z,-2.20
2022-11-21T06:48:45.423Z,-2.21
2022-11-21T06:52:47.101Z,-2.13
2022-11-21T06:56:52.890Z,-2.05
2022-11-21T07:00:54.445Z,-2.07
2022-11-21T07:04:56.066Z,-2.02
2022-11-21T07:09:31.117Z,-2.10
2022-11-21T07:13:21.931Z,-1.96
2022-11-21T07:17:23.619Z,-1.92
2022-11-21T07:21:25.064Z,-2.08
2022-11-21T07:25:26.588Z,-1.96
2022-11-21T07:29:28.229Z,-1.89
2022-11-21T07:33:30.510Z,-2.06
2022-11-21T07:37:32.096Z,-2.02
2022-11-21T07:41:33.589Z,-1.95
2022-11-21T07:45:35.121Z,-2.05
2022-11-21T07:49:37.022Z,-2.11
2022-11-21T07:53:38.532Z,-2.05
2022-11-21T07:57:39.991Z,-1.96
2022-11-21T08:01:45.401Z,-2.05
2022-11-21T08:05:47.289Z,-2.04
2022-11-21T08:09:49.065Z,-2.14
2022-11-21T08:13:50.552Z,-1.83
2022-11-21T08:17:52.019Z,-1.98
2022-11-21T08:21:53.549Z,-2.36
2022-11-21T08:25:54.956Z,-2.13
2022-11-21T08:29:56.433Z,-2.10
2022-11-21T08:33:57.948Z,-2.19
2022-11-21T08:38:01.117Z,-2.02
2022-11-21T08:42:05.502Z,-2.26
2022-11-21T08:46:06.983Z,-1.98
2022-11-21T08:50:09.393Z,-1.83
2022-11-21T08:54:11.086Z,-2.37
2022-11-21T08:58:12.493Z,-2.59
2022-11-21T09:02:13.957Z,-2.63
2022-11-21T09:06:15.604Z,-2.39
2022-11-21T09:10:17.153Z,-2.62
2022-11-21T09:14:37.523Z,-2.79
2022-11-21T09:18:38.829Z,-2.76
2022-11-21T09:22:40.302Z,-2.49
2022-11-21T09:26:41.785Z,-2.38
2022-11-21T09:30:43.788Z,-2.40
2022-11-21T09:34:45.352Z,-2.20
2022-11-21T09:38:46.808Z,-2.14
2022-11-21T09:42:50.932Z,-2.48
2022-11-21T09:47:00.826Z,-2.39
2022-11-21T09:51:05.909Z,-2.91
2022-11-21T09:55:29.343Z,-3.11
2022-11-21T09:59:38.849Z,-3.05
2022-11-21T10:03:49.557Z,-2.70
2022-11-21T10:07:55.668Z,-2.66
2022-11-21T10:12:36.888Z,-2.98
2022-11-21T10:16:42.046Z,-2.93
2022-11-21T10:21:15.940Z,-2.90
2022-11-21T10:25:33.149Z,-3.03
2022-11-21T10:29:45.395Z,-3.21
2022-11-21T10:33:47.881Z,-2.91
2022-11-21T10:38:01.082Z,-2.72
2022-11-21T10:42:36.153Z,-2.57
2022-11-21T10:46:37.560Z,-3.45
2022-11-21T10:51:07.785Z,-3.10
2022-11-21T10:55:14.216Z,-3.19
2022-11-21T10:59:34.156Z,-3.08
2022-11-21T11:03:35.599Z,-3.01
2022-11-21T11:07:37.162Z,-3.12
2022-11-21T11:11:38.635Z,-2.96
2022-11-21T11:16:02.720Z,-2.89
2022-11-21T11:20:07.771Z,-2.81
2022-11-21T11:24:09.137Z,-2.92
2022-11-21T11:28:12.884Z,-2.82
2022-11-21T11:32:21.543Z,-2.63
2022-11-21T11:37:03.939Z,-2.76
2022-11-21T11:41:19.677Z,-2.85
2022-11-21T11:46:14.835Z,-2.69
2022-11-21T11:50:20.084Z,-2.61
2022-11-21T11:54:29.845Z,-2.74
2022-11-21T11:58:40.409Z,-2.62
2022-11-21T12:02:53.275Z,-2.46
2022-11-21T12:12:08.729Z,-2.90
2022-11-21T12:16:14.147Z,-2.55
2022-11-21T12:20:30.549Z,-2.60
2022-11-21T12:24:36.076Z,-2.53
2022-11-21T12:28:41.284Z,-2.48
2022-11-21T12:32:56.902Z,-2.41
2022-11-21T12:37:10.580Z,-2.17
2022-11-21T12:41:50.709Z,-2.01
2022-11-21T12:46:25.901Z,-2.14
2022-11-21T12:50:55.620Z,-2.45
2022-11-21T12:55:14.441Z,-2.34
2022-11-21T12:59:16.088Z,-2.37
2022-11-21T13:03:29.135Z,-2.17
2022-11-21T13:07:32.610Z,-2.09
2022-11-21T13:11:58.027Z,-1.93
2022-11-21T13:16:10.427Z,-2.04
2022-11-21T13:20:24.244Z,-2.43
2022-11-21T13:24:44.167Z,-2.31
2022-11-21T13:28:47.105Z,-2.64
2022-11-21T13:32:53.935Z,-2.42
2022-11-21T13:36:55.339Z,-2.13
2022-11-21T13:41:15.120Z,-2.06
2022-11-21T13:45:43.484Z,-2.21
2022-11-21T13:50:04.448Z,-2.27
2022-11-21T13:54:28.330Z,-2.16
2022-11-21T13:58:52.674Z,-2.18
2022-11-21T14:03:17.494Z,-2.05
2022-11-21T14:07:24.840Z,-1.77
2022-11-21T14:11:38.898Z,-1.74
2022-11-21T14:15:51.206Z,-1.89
2022-11-21T14:19:56.109Z,-2.42
2022-11-21T14:24:04.338Z,-2.07
2022-11-21T14:28:11.575Z,-1.99
2022-11-21T14:32:16.466Z,-1.99
2022-11-21T14:36:26.832Z,-1.84
2022-11-21T14:40:28.262Z,-2.08
2022-11-21T14:44:29.844Z,-2.25
2022-11-21T14:48:32.017Z,-2.08
2022-11-21T14:52:34.180Z,-2.26
2022-11-21T14:56:35.721Z,-2.39
2022-11-21T15:00:59.122Z,-2.37
2022-11-21T15:05:05.007Z,-2.43
2022-11-21T15:13:58.532Z,-2.29
2022-11-21T15:22:34.178Z,-2.07
2022-11-21T15:26:36.135Z,-2.16
2022-11-21T15:30:38.167Z,-2.19
2022-11-21T15:34:39.642Z,-2.18
2022-11-21T15:38:53.461Z,-2.07
2022-11-21T15:42:54.981Z,-1.99
2022-11-21T15:46:56.442Z,-1.98
2022-11-21T15:50:59.092Z,-2.11
2022-11-21T15:55:00.651Z,-2.04
2022-11-21T15:59:02.599Z,-2.04
2022-11-21T16:03:04.026Z,-2.21
2022-11-21T16:07:05.546Z,-2.31
2022-11-21T16:11:11.588Z,-2.33
2022-11-21T16:15:13.259Z,-2.39
2022-11-21T16:19:15.823Z,-2.65
2022-11-21T16:23:17.341Z,-2.63
2022-11-21T16:27:19.047Z,-2.74
2022-11-21T16:31:22.934Z,-2.84
2022-11-21T16:35:24.464Z,-2.76
2022-11-21T16:39:25.919Z,-2.89
2022-11-21T16:43:29.154Z,-2.90
2022-11-21T16:47:30.604Z,-2.96
2022-11-21T16:51:32.083Z,-2.85
2022-11-21T16:55:33.582Z,-3.06
2022-11-21T16:59:35.050Z,-3.14
2022-11-21T17:03:38.708Z,-3.08
2022-11-21T17:07:40.243Z,-3.29
2022-11-21T17:11:41.771Z,-3.10
2022-11-21T17:15:43.307Z,-3.04
2022-11-21T17:19:45.014Z,-3.18
2022-11-21T17:23:48.197Z,-3.06
2022-11-21T17:27:49.728Z,-3.00
2022-11-21T17:31:51.328Z,-2.91
2022-11-21T17:35:53.003Z,-2.89
2022-11-21T17:39:54.470Z,-2.91
2022-11-21T17:43:57.549Z,-2.83
2022-11-21T17:47:58.922Z,-2.80
2022-11-21T17:52:00.360Z,-2.85
2022-11-21T17:56:06.487Z,-2.62
2022-11-21T18:00:08.630Z,-2.69
2022-11-21T18:04:14.895Z,-2.78
2022-11-21T18:08:19.917Z,-2.70
2022-11-21T18:12:27.475Z,-2.65
2022-11-21T18:16:32.575Z,-2.63
2022-11-21T18:20:34.134Z,-2.67
2022-11-21T18:24:35.826Z,-2.62
2022-11-21T18:28:37.685Z,-2.54
2022-11-21T18:32:39.248Z,-2.53
2022-11-21T18:36:43.616Z,-2.52
2022-11-21T18:40:45.188Z,-2.62
2022-11-21T18:44:50.395Z,-2.54
2022-11-21T18:49:04.269Z,-2.62
2022-11-21T18:53:10.038Z,-2.66
2022-11-21T18:57:13.662Z,-2.54
2022-11-21T19:01:20.462Z,-2.47
2022-11-21T19:05:24.834Z,-2.44
2022-11-21T19:09:32.547Z,-2.49
2022-11-21T19:13:37.979Z,-2.56
2022-11-21T19:17:40.402Z,-2.43
2022-11-21T19:21:42.949Z,-2.41
2022-11-21T19:25:44.516Z,-2.36
2022-11-21T19:29:46.025Z,-2.29
2022-11-21T19:33:47.607Z,-2.27
2022-11-21T19:37:49.256Z,-2.25
2022-11-21T19:41:51.150Z,-2.33
2022-11-21T19:45:57.837Z,-2.31
2022-11-21T19:50:00.685Z,-2.16
2022-11-21T19:54:03.509Z,-2.27
2022-11-21T19:58:05.019Z,-2.38
2022-11-21T20:02:06.743Z,-2.36
2022-11-21T20:06:16.260Z,-2.32
2022-11-21T20:10:17.908Z,-2.34
2022-11-21T20:14:22.452Z,-2.38
2022-11-21T20:18:24.554Z,-2.31
2022-11-21T20:22:29.230Z,-2.29
2022-11-21T20:26:32.280Z,-2.20
2022-11-21T20:30:42.077Z,-2.24
2022-11-21T20:34:43.578Z,-2.01
2022-11-21T20:39:12.902Z,-2.10
2022-11-21T20:43:15.863Z,-2.27
2022-11-21T20:47:18.554Z,-2.33
2022-11-21T20:55:45.089Z,-2.31
2022-11-21T20:59:46.647Z,-2.28
2022-11-21T21:03:48.909Z,-2.31
2022-11-21T21:07:50.453Z,-2.21
2022-11-21T21:11:53.427Z,-2.26
2022-11-21T21:15:55.345Z,-2.21
2022-11-21T21:19:56.922Z,-2.13
2022-11-21T21:24:07.184Z,-2.13
2022-11-21T21:28:09.357Z,-2.13
2022-11-21T21:32:11.514Z,-2.11
2022-11-21T21:36:15.250Z,-2.13
2022-11-21T21:40:17.306Z,-2.08
2022-11-21T21:44:19.807Z,-2.10
2022-11-21T21:48:21.312Z,-2.15
2022-11-21T21:52:22.867Z,-2.11
2022-11-21T21:56:26.929Z,-2.05
2022-11-21T22:00:28.383Z,-2.12
2022-11-21T22:04:32.038Z,-2.24
2022-11-21T22:08:35.732Z,-2.41
2022-11-21T22:12:42.556Z,-2.40
2022-11-21T22:16:45.575Z,-2.44
2022-11-21T22:20:47.111Z,-2.70
2022-11-21T22:24:48.585Z,-2.81
2022-11-21T22:28:50.363Z,-2.75
2022-11-21T22:32:52.412Z,-2.74
2022-11-21T22:36:53.975Z,-2.71
2022-11-21T22:41:07.463Z,-2.82
2022-11-21T22:45:09.917Z,-2.91
2022-11-21T22:49:11.503Z,-3.07
2022-11-21T22:53:12.974Z,-2.97
2022-11-21T22:57:14.518Z,-2.96
2022-11-21T23:01:20.112Z,-3.15
2022-11-21T23:05:21.687Z,-3.16
2022-11-21T23:09:23.183Z,-3.25
2022-11-21T23:13:24.697Z,-3.29
2022-11-21T23:17:26.197Z,-3.31
2022-11-21T23:21:27.764Z,-3.28
2022-11-21T23:25:29.202Z,-3.32
2022-11-21T23:29:31.039Z,-3.31
2022-11-21T23:33:32.824Z,-3.34
2022-11-21T23:37:34.309Z,-3.30
2022-11-21T23:41:36.122Z,-3.23
2022-11-21T23:45:37.726Z,-3.05
2022-11-21T23:49:39.216Z,-3.22
2022-11-21T23:53:40.670Z,-2.99
2022-11-21T23:57:42.340Z,-3.04
